Philadelphia, Pennsylvania
Traffic Map
Current Weather Conditions
Philadelphia, Pennsylvania
Broken Clouds
Broken Clouds
74°
Feels Like: 74°
Wind Chill: 74° Ceiling: 25000
Heat Index: 74° Visibility: 10mi
Dew Point: 54° Wind: 12mph
Humidity: 50% Direction: 190° (S)
Pressure: 29.86in Gusts: 0mph
Raw Report DataKPHL 241954Z 19010KT 10SM SCT047 BKN250 23/12 A2986 RMK AO2 SLP111 T02330122
Traffic Incident Summary
Active as of:
Severity:
Category:
InformationThere was an issue retrieving the traffic information for this location. Please try a different location or try again shortly.
Advertisements
Track Severe Weather on mobile